createdAt,value
2019-04-04T00:00:45.151Z,27.17
2019-04-04T00:03:21.238Z,25.93
2019-04-04T00:05:58.129Z,25.90
2019-04-04T00:08:33.710Z,26.13
2019-04-04T00:11:08.847Z,25.83
2019-04-04T00:13:44.081Z,26.10
2019-04-04T00:16:22.813Z,26.60
2019-04-04T00:18:59.122Z,27.00
2019-04-04T00:21:34.829Z,24.80
2019-04-04T00:24:10.103Z,28.13
2019-04-04T00:26:45.198Z,28.13
2019-04-04T00:29:20.265Z,26.73
2019-04-04T00:31:55.258Z,29.40
2019-04-04T00:34:30.312Z,30.40
2019-04-04T00:37:05.350Z,27.27
2019-04-04T00:39:40.497Z,28.00
2019-04-04T00:42:16.968Z,29.53
2019-04-04T00:44:53.868Z,29.93
2019-04-04T00:47:32.354Z,27.63
2019-04-04T00:50:10.361Z,26.40
2019-04-04T00:52:45.318Z,27.97
2019-04-04T00:55:20.328Z,26.67
2019-04-04T00:57:55.365Z,30.60
2019-04-04T01:00:30.404Z,28.60
2019-04-04T01:03:05.515Z,29.73
2019-04-04T01:05:40.548Z,28.77
2019-04-04T01:08:15.538Z,27.17
2019-04-04T01:10:50.527Z,29.13
2019-04-04T01:13:27.563Z,28.97
2019-04-04T01:16:03.295Z,26.00
2019-04-04T01:18:38.402Z,25.90
2019-04-04T01:21:13.516Z,27.07
2019-04-04T01:23:48.510Z,26.67
2019-04-04T01:26:23.645Z,24.43
2019-04-04T01:28:59.615Z,25.60
2019-04-04T01:31:35.388Z,25.73
2019-04-04T01:34:10.494Z,26.40
2019-04-04T01:36:45.534Z,26.97
2019-04-04T01:39:20.666Z,24.33
2019-04-04T01:41:55.647Z,22.83
2019-04-04T01:44:30.945Z,23.67
2019-04-04T01:47:06.328Z,23.20
2019-04-04T01:49:41.389Z,25.00
2019-04-04T01:52:16.404Z,23.33
2019-04-04T01:54:51.488Z,22.80
2019-04-04T01:57:26.544Z,22.93
2019-04-04T02:00:01.721Z,20.60
2019-04-04T02:02:38.070Z,21.50
2019-04-04T02:05:13.735Z,22.60
2019-04-04T02:07:49.454Z,23.00
2019-04-04T02:10:24.330Z,20.30
2019-04-04T02:13:02.720Z,24.17
2019-04-04T02:15:37.736Z,23.00
2019-04-04T02:18:12.804Z,23.00
2019-04-04T02:20:47.750Z,26.73
2019-04-04T02:23:22.840Z,28.00
2019-04-04T02:25:57.814Z,22.27
2019-04-04T02:28:33.542Z,22.23
2019-04-04T02:31:09.301Z,22.90
2019-04-04T02:33:44.498Z,21.73
2019-04-04T02:36:19.527Z,21.30
2019-04-04T02:39:13.200Z,21.27
2019-04-04T02:41:49.309Z,22.13
2019-04-04T02:44:24.242Z,22.70
2019-04-04T02:46:59.205Z,19.10
2019-04-04T02:49:34.474Z,18.90
2019-04-04T02:52:12.819Z,20.03
2019-04-04T02:54:46.249Z,20.63
2019-04-04T02:57:21.319Z,19.30
2019-04-04T02:59:56.276Z,19.87
2019-04-04T03:02:31.251Z,19.87
2019-04-04T03:05:06.525Z,20.23
2019-04-04T03:07:43.732Z,20.40
2019-04-04T03:10:18.689Z,18.70
2019-04-04T03:12:58.033Z,18.60
2019-04-04T03:15:31.012Z,19.33
2019-04-04T03:18:06.352Z,18.70
2019-04-04T03:20:41.416Z,19.43
2019-04-04T03:23:16.383Z,17.83
2019-04-04T03:25:51.458Z,19.17
2019-04-04T03:28:31.363Z,18.00
2019-04-04T03:31:03.949Z,17.47
2019-04-04T03:33:40.771Z,18.40
2019-04-04T03:36:15.753Z,18.10
2019-04-04T03:38:50.952Z,16.77
2019-04-04T03:41:27.607Z,16.57
2019-04-04T03:44:02.684Z,16.97
2019-04-04T03:46:38.999Z,17.10
2019-04-04T03:49:14.374Z,15.67
2019-04-04T03:51:49.357Z,16.17
2019-04-04T03:54:26.603Z,18.67
2019-04-04T03:57:01.979Z,18.17
2019-04-04T03:59:37.240Z,19.33
2019-04-04T04:02:12.423Z,18.83
2019-04-04T04:04:47.469Z,20.70
2019-04-04T04:07:22.847Z,20.97
2019-04-04T04:09:59.808Z,19.53
2019-04-04T04:12:34.965Z,20.70
2019-04-04T04:15:10.708Z,20.77
2019-04-04T04:17:46.557Z,21.57
2019-04-04T04:20:21.848Z,23.93
2019-04-04T04:22:56.930Z,21.87
2019-04-04T04:25:35.105Z,22.57
2019-04-04T04:28:08.989Z,24.80
2019-04-04T04:30:44.370Z,23.77
2019-04-04T04:33:19.448Z,21.40
2019-04-04T04:35:54.439Z,20.97
2019-04-04T04:38:29.459Z,22.23
2019-04-04T04:41:04.542Z,23.00
2019-04-04T04:43:40.260Z,20.53
2019-04-04T04:46:17.804Z,23.40
2019-04-04T04:48:52.085Z,23.20
2019-04-04T04:51:27.088Z,24.07
2019-04-04T04:54:02.287Z,22.37
2019-04-04T04:56:37.292Z,23.50
2019-04-04T04:59:13.234Z,21.33
2019-04-04T05:01:50.639Z,22.17
2019-04-04T05:04:27.827Z,21.20
2019-04-04T05:07:02.638Z,20.80
2019-04-04T05:09:37.631Z,22.50
2019-04-04T05:12:12.786Z,22.37
2019-04-04T05:14:47.738Z,23.53
2019-04-04T05:17:22.818Z,21.93
2019-04-04T05:19:57.751Z,23.37
2019-04-04T05:22:33.498Z,23.00
2019-04-04T05:25:09.112Z,21.53
2019-04-04T05:27:45.537Z,23.60
2019-04-04T05:30:20.718Z,22.83
2019-04-04T05:32:56.492Z,24.77
2019-04-04T05:35:33.434Z,22.87
2019-04-04T05:38:12.144Z,20.43
2019-04-04T05:40:45.721Z,20.27
2019-04-04T05:43:20.730Z,21.93
2019-04-04T05:45:55.908Z,22.30
2019-04-04T05:48:30.905Z,23.30
2019-04-04T05:51:06.214Z,22.07
2019-04-04T05:53:41.411Z,23.57
2019-04-04T05:56:16.493Z,22.30
2019-04-04T05:58:53.132Z,21.70
2019-04-04T06:01:29.103Z,22.73
2019-04-04T06:04:04.491Z,23.00
2019-04-04T06:06:39.711Z,21.27
2019-04-04T06:09:15.031Z,22.00
2019-04-04T06:11:50.905Z,23.53
2019-04-04T06:14:27.940Z,20.57
2019-04-04T06:17:05.105Z,22.00
2019-04-04T06:19:40.633Z,21.63
2019-04-04T06:22:15.799Z,28.17
2019-04-04T06:24:52.208Z,26.43
2019-04-04T06:27:29.684Z,27.23
2019-04-04T06:30:06.261Z,26.13
2019-04-04T06:32:42.521Z,24.87
2019-04-04T06:35:19.086Z,24.83
2019-04-04T06:37:55.318Z,23.30
2019-04-04T06:40:30.926Z,24.40
2019-04-04T06:43:12.048Z,24.27
2019-04-04T06:45:47.566Z,23.90
2019-04-04T06:48:22.953Z,22.70
2019-04-04T06:50:58.186Z,23.50
2019-04-04T06:53:33.959Z,22.87
2019-04-04T06:56:08.961Z,24.57
2019-04-04T06:58:44.563Z,24.87
2019-04-04T07:01:21.989Z,23.00
2019-04-04T07:03:59.461Z,24.30
2019-04-04T07:06:34.349Z,24.60
2019-04-04T07:09:13.268Z,24.80
2019-04-04T07:11:47.301Z,24.30
2019-04-04T07:14:22.507Z,24.47
2019-04-04T07:16:57.582Z,23.47
2019-04-04T07:19:32.895Z,25.50
2019-04-04T07:22:07.888Z,24.17
2019-04-04T07:24:43.204Z,23.80
2019-04-04T07:27:18.163Z,24.50
2019-04-04T07:29:56.593Z,21.60
2019-04-04T07:32:29.949Z,23.07
2019-04-04T07:35:05.265Z,24.63
2019-04-04T07:37:40.265Z,24.80
2019-04-04T07:40:15.281Z,26.07
2019-04-04T07:42:50.313Z,24.83
2019-04-04T07:45:26.981Z,24.87
2019-04-04T07:48:02.294Z,24.10
2019-04-04T07:50:40.143Z,25.60
2019-04-04T07:53:16.105Z,23.93
2019-04-04T07:55:51.971Z,24.00
2019-04-04T07:58:26.943Z,25.53
2019-04-04T08:01:03.573Z,24.73
2019-04-04T08:03:38.587Z,25.37
2019-04-04T08:06:13.719Z,24.57
2019-04-04T08:08:48.713Z,26.80
2019-04-04T08:11:24.079Z,27.10
2019-04-04T08:13:59.067Z,26.40
2019-04-04T08:16:34.257Z,25.80
2019-04-04T08:19:09.426Z,26.00
2019-04-04T08:21:44.403Z,24.07
2019-04-04T08:24:19.407Z,25.70
2019-04-04T08:26:54.370Z,26.00
2019-04-04T08:29:29.375Z,24.63
2019-04-04T08:32:04.717Z,25.07
2019-04-04T08:34:40.381Z,26.50
2019-04-04T08:37:15.357Z,23.97
2019-04-04T08:39:50.378Z,26.53
2019-04-04T08:42:25.437Z,28.60
2019-04-04T08:45:00.434Z,27.47
2019-04-04T08:47:35.581Z,26.30
2019-04-04T08:50:10.983Z,25.33
2019-04-04T08:52:45.971Z,26.50
2019-04-04T08:55:21.343Z,26.87
2019-04-04T08:57:56.411Z,28.37
2019-04-04T09:00:32.310Z,27.03
2019-04-04T09:03:07.283Z,27.13
2019-04-04T09:05:42.479Z,27.03
2019-04-04T09:08:17.427Z,26.50
2019-04-04T09:10:52.630Z,25.10
2019-04-04T09:13:27.627Z,23.67
2019-04-04T09:16:02.987Z,27.73
2019-04-04T09:18:38.919Z,26.63
2019-04-04T09:21:14.035Z,26.30
2019-04-04T09:23:49.093Z,27.07
2019-04-04T09:26:24.120Z,26.50
2019-04-04T09:28:59.115Z,24.80
2019-04-04T09:31:34.431Z,26.40
2019-04-04T09:34:09.513Z,27.73
2019-04-04T09:36:44.786Z,26.43
2019-04-04T09:39:19.792Z,26.70
2019-04-04T09:41:54.793Z,25.90
2019-04-04T09:44:29.769Z,26.57
2019-04-04T09:47:05.846Z,25.07
2019-04-04T09:49:40.977Z,26.33
2019-04-04T09:52:15.995Z,26.23
2019-04-04T09:54:52.669Z,27.03
2019-04-04T09:57:27.689Z,26.97
2019-04-04T10:00:04.830Z,27.70
2019-04-04T10:02:42.119Z,25.40
2019-04-04T10:05:18.527Z,25.87
2019-04-04T10:07:53.808Z,25.60
2019-04-04T10:10:29.725Z,25.30
2019-04-04T10:13:04.777Z,25.90
2019-04-04T10:15:40.843Z,28.50
2019-04-04T10:18:16.031Z,31.17
2019-04-04T10:20:51.139Z,38.03
2019-04-04T10:23:26.622Z,42.40
2019-04-04T10:26:01.887Z,41.27
2019-04-04T10:28:37.039Z,42.50
2019-04-04T10:31:12.197Z,46.00
2019-04-04T10:33:48.092Z,43.07
2019-04-04T10:36:23.229Z,44.47
2019-04-04T10:38:58.585Z,45.90
2019-04-04T10:41:34.272Z,44.57
2019-04-04T10:44:10.806Z,38.60
2019-04-04T10:46:45.893Z,42.87
2019-04-04T10:49:21.049Z,39.60
2019-04-04T10:51:56.128Z,35.30
2019-04-04T10:54:34.496Z,32.33
2019-04-04T10:57:09.724Z,33.37
2019-04-04T10:59:44.815Z,29.83
2019-04-04T11:02:19.881Z,29.80
2019-04-04T11:04:55.232Z,31.20
2019-04-04T11:07:30.894Z,30.27
2019-04-04T11:10:07.875Z,28.47
2019-04-04T11:12:44.493Z,28.43
2019-04-04T11:15:19.527Z,28.67
2019-04-04T11:17:54.699Z,25.23
2019-04-04T11:20:30.004Z,23.80
2019-04-04T11:23:05.071Z,23.73
2019-04-04T11:25:40.285Z,24.83
2019-04-04T11:28:15.396Z,23.10
2019-04-04T11:30:50.428Z,22.80
2019-04-04T11:33:27.536Z,22.40
2019-04-04T11:36:03.006Z,21.97
2019-04-04T11:38:38.075Z,23.73
2019-04-04T11:41:13.359Z,25.57
2019-04-04T11:43:48.478Z,22.37
2019-04-04T11:46:23.741Z,23.07
2019-04-04T11:48:58.789Z,25.70
2019-04-04T11:51:34.297Z,25.03
2019-04-04T11:54:09.499Z,24.47
2019-04-04T11:56:44.477Z,26.27
2019-04-04T11:59:19.547Z,24.60
2019-04-04T12:01:54.752Z,25.03
2019-04-04T12:04:29.782Z,23.77
2019-04-04T12:07:04.957Z,25.00
2019-04-04T12:09:40.001Z,26.80
2019-04-04T12:12:15.233Z,25.27
2019-04-04T12:14:50.244Z,23.07
2019-04-04T12:17:25.411Z,25.80
2019-04-04T12:20:00.433Z,24.27
2019-04-04T12:22:35.504Z,25.53
2019-04-04T12:25:11.037Z,25.70
2019-04-04T12:27:46.041Z,27.47
2019-04-04T12:30:21.535Z,27.00
2019-04-04T12:32:56.584Z,24.53
2019-04-04T12:35:31.861Z,26.30
2019-04-04T12:38:10.278Z,25.30
2019-04-04T12:40:46.100Z,26.37
2019-04-04T12:43:21.189Z,25.90
2019-04-04T12:45:57.615Z,26.80
2019-04-04T12:48:32.985Z,25.57
2019-04-04T12:51:08.047Z,27.10
2019-04-04T12:53:43.893Z,26.57
2019-04-04T12:56:19.130Z,27.23
2019-04-04T12:58:55.121Z,25.47
2019-04-04T13:01:30.147Z,26.83
2019-04-04T13:04:05.111Z,25.70
2019-04-04T13:06:40.114Z,27.70
2019-04-04T13:09:15.187Z,27.30
2019-04-04T13:11:50.235Z,27.70
2019-04-04T13:14:25.399Z,27.27
2019-04-04T13:17:00.403Z,26.03
2019-04-04T13:19:35.588Z,24.50
2019-04-04T13:22:10.588Z,23.90
2019-04-04T13:24:45.606Z,23.00
2019-04-04T13:27:20.734Z,22.60
2019-04-04T13:29:55.703Z,23.03
2019-04-04T13:32:30.722Z,23.00
2019-04-04T13:35:06.148Z,22.60
2019-04-04T13:37:41.307Z,21.47
2019-04-04T13:40:16.756Z,21.83
2019-04-04T13:42:53.095Z,21.57
2019-04-04T13:45:28.511Z,21.77
2019-04-04T13:48:05.334Z,22.87
2019-04-04T13:50:40.324Z,21.60
2019-04-04T13:53:15.373Z,23.00
2019-04-04T13:55:50.352Z,21.10
2019-04-04T13:58:25.360Z,22.30
2019-04-04T14:01:00.330Z,22.13
2019-04-04T14:03:35.438Z,22.90
2019-04-04T14:06:10.428Z,21.87
2019-04-04T14:08:46.177Z,23.80
2019-04-04T14:11:21.268Z,22.20
2019-04-04T14:13:58.704Z,21.77
2019-04-04T14:16:33.769Z,23.30
2019-04-04T14:19:10.204Z,23.80
2019-04-04T14:21:45.386Z,24.63
2019-04-04T14:24:21.522Z,24.67
2019-04-04T14:26:56.577Z,24.20
2019-04-04T14:29:31.795Z,23.90
2019-04-04T14:32:06.775Z,23.47
2019-04-04T14:34:42.040Z,25.00
2019-04-04T14:37:17.049Z,23.53
2019-04-04T14:39:52.147Z,22.77
2019-04-04T14:42:27.218Z,25.40
2019-04-04T14:45:02.899Z,24.47
2019-04-04T14:47:38.015Z,25.40
2019-04-04T14:50:13.530Z,26.80
2019-04-04T14:52:51.794Z,23.50
2019-04-04T14:55:26.012Z,26.67
2019-04-04T14:58:01.072Z,27.17
2019-04-04T15:00:36.122Z,28.17
2019-04-04T15:03:11.316Z,27.90
2019-04-04T15:05:46.326Z,29.80
2019-04-04T15:08:21.538Z,27.30
2019-04-04T15:10:56.531Z,27.07
2019-04-04T15:13:31.744Z,25.90
2019-04-04T15:16:18.986Z,28.80
2019-04-04T15:18:54.131Z,28.87
2019-04-04T15:21:29.146Z,29.60
2019-04-04T15:24:10.372Z,30.47
2019-04-04T15:26:45.380Z,30.00
2019-04-04T15:29:20.503Z,30.37
2019-04-04T15:31:55.492Z,31.33
2019-04-04T15:34:30.586Z,29.27
2019-04-04T15:37:05.629Z,30.80
2019-04-04T15:39:41.806Z,30.77
2019-04-04T15:42:17.790Z,31.57
2019-04-04T15:44:53.081Z,31.00
2019-04-04T15:47:28.262Z,30.77
2019-04-04T15:50:07.348Z,31.90
2019-04-04T15:52:44.268Z,31.57
2019-04-04T15:55:19.462Z,32.37
2019-04-04T15:57:54.449Z,31.17
2019-04-04T16:00:29.466Z,30.73
2019-04-04T16:03:04.488Z,31.60
2019-04-04T16:05:40.522Z,31.20
2019-04-04T16:08:15.494Z,30.33
2019-04-04T16:10:50.564Z,30.53
2019-04-04T16:13:28.312Z,30.53
2019-04-04T16:16:03.642Z,30.47
2019-04-04T16:18:38.654Z,31.37
2019-04-04T16:21:13.883Z,31.70
2019-04-04T16:23:48.889Z,30.03
2019-04-04T16:26:24.044Z,30.80
2019-04-04T16:28:59.110Z,31.00
2019-04-04T16:31:34.639Z,28.33
2019-04-04T16:34:09.907Z,30.80
2019-04-04T16:36:44.902Z,25.77
2019-04-04T16:39:22.347Z,27.87
2019-04-04T16:42:02.470Z,27.80
2019-04-04T16:44:34.832Z,27.80
2019-04-04T16:47:09.856Z,28.10
2019-04-04T16:49:45.028Z,28.83
2019-04-04T16:52:20.163Z,32.30
2019-04-04T16:54:55.168Z,31.53
2019-04-04T16:57:30.502Z,30.93
2019-04-04T17:00:08.666Z,32.23
2019-04-04T17:02:43.943Z,33.83
2019-04-04T17:05:19.950Z,30.20
2019-04-04T17:07:58.980Z,30.40
2019-04-04T17:10:34.327Z,26.80
2019-04-04T17:13:10.632Z,25.67
2019-04-04T17:15:46.373Z,23.20
2019-04-04T17:18:21.667Z,20.03
2019-04-04T17:24:08.414Z,20.27
2019-04-04T17:26:44.806Z,21.10
2019-04-04T17:29:20.957Z,19.27
2019-04-04T17:31:56.079Z,20.53
2019-04-04T17:34:54.006Z,18.77
2019-04-04T17:37:36.446Z,20.00
2019-04-04T17:40:13.040Z,18.90
2019-04-04T17:42:49.828Z,18.63
2019-04-04T17:45:25.240Z,19.40
2019-04-04T17:48:00.464Z,17.23
2019-04-04T17:50:35.656Z,18.40
2019-04-04T17:53:10.978Z,19.60
2019-04-04T17:55:46.466Z,19.07
2019-04-04T17:58:22.276Z,20.13
2019-04-04T18:00:57.311Z,17.63
2019-04-04T18:03:32.914Z,18.53
2019-04-04T18:06:08.226Z,17.83
2019-04-04T18:08:43.480Z,18.80
2019-04-04T18:11:20.182Z,18.90
2019-04-04T18:13:55.280Z,17.40
2019-04-04T18:16:30.301Z,16.00
2019-04-04T18:19:05.372Z,18.10
2019-04-04T18:21:40.485Z,15.90
2019-04-04T18:24:15.553Z,15.63
2019-04-04T18:26:50.575Z,15.03
2019-04-04T18:29:25.683Z,16.23
2019-04-04T18:32:00.675Z,15.87
2019-04-04T18:34:35.922Z,15.03
2019-04-04T18:37:11.080Z,15.27
2019-04-04T18:39:46.244Z,14.10
2019-04-04T18:42:21.343Z,14.80
2019-04-04T18:45:00.677Z,14.10
2019-04-04T18:47:35.973Z,14.17
2019-04-04T18:50:13.360Z,13.83
2019-04-04T18:52:48.547Z,12.20
2019-04-04T18:55:23.686Z,12.90
2019-04-04T18:57:58.662Z,14.40
2019-04-04T19:00:34.058Z,14.57
2019-04-04T19:03:09.097Z,13.67
2019-04-04T19:05:44.243Z,16.13
2019-04-04T19:08:19.368Z,13.80
2019-04-04T19:10:54.429Z,15.47
2019-04-04T19:13:43.760Z,15.47
2019-04-04T19:16:09.480Z,14.83
2019-04-04T19:18:44.717Z,16.90
2019-04-04T19:21:23.006Z,14.40
2019-04-04T19:23:58.247Z,13.93
2019-04-04T19:26:34.086Z,14.07
2019-04-04T19:29:09.159Z,13.13
2019-04-04T19:31:44.341Z,14.23
2019-04-04T19:34:19.409Z,14.03
2019-04-04T19:36:54.420Z,14.37
2019-04-04T19:39:29.427Z,14.10
2019-04-04T19:42:05.076Z,14.63
2019-04-04T19:44:53.224Z,15.97
2019-04-04T19:47:20.518Z,15.20
2019-04-04T19:49:55.650Z,16.07
2019-04-04T19:52:30.703Z,16.63
2019-04-04T19:55:05.819Z,17.90
2019-04-04T19:57:41.704Z,19.17
2019-04-04T20:00:17.024Z,17.70
2019-04-04T20:02:52.173Z,18.30
2019-04-04T20:05:27.245Z,17.90
2019-04-04T20:08:02.683Z,19.20
2019-04-04T20:10:37.770Z,19.20
2019-04-04T20:13:13.540Z,20.00
2019-04-04T20:15:48.645Z,19.10
2019-04-04T20:18:23.721Z,19.10
2019-04-04T20:20:58.957Z,20.50
2019-04-04T20:23:34.332Z,21.23
2019-04-04T20:26:12.856Z,20.73
2019-04-04T20:28:50.019Z,20.37
2019-04-04T20:31:25.104Z,18.57
2019-04-04T20:34:01.758Z,20.13
2019-04-04T20:36:36.928Z,19.87
2019-04-04T20:39:12.359Z,18.53
2019-04-04T20:41:47.379Z,20.00
2019-04-04T20:44:22.811Z,19.20
2019-04-04T20:46:57.804Z,18.73
2019-04-04T20:49:33.004Z,18.17
2019-04-04T20:52:08.004Z,16.37
2019-04-04T20:54:43.198Z,18.77
2019-04-04T20:57:18.259Z,18.17
2019-04-04T20:59:53.453Z,16.77
2019-04-04T21:02:28.476Z,17.43
2019-04-04T21:05:03.591Z,16.17
2019-04-04T21:07:38.712Z,17.40
2019-04-04T21:10:13.789Z,18.10
2019-04-04T21:12:58.512Z,17.40
2019-04-04T21:15:33.815Z,16.80
2019-04-04T21:18:08.893Z,18.07
2019-04-04T21:20:44.005Z,17.60
2019-04-04T21:23:19.813Z,18.20
2019-04-04T21:25:56.573Z,17.87
2019-04-04T21:28:32.967Z,18.57
2019-04-04T21:31:07.959Z,17.43
2019-04-04T21:33:43.498Z,17.10
2019-04-04T21:36:18.538Z,17.23
2019-04-04T21:38:53.663Z,17.20
2019-04-04T21:41:29.722Z,16.87
2019-04-04T21:44:09.095Z,16.80
2019-04-04T21:46:41.771Z,17.27
2019-04-04T21:49:16.772Z,17.10
2019-04-04T21:51:51.889Z,16.90
2019-04-04T21:54:29.627Z,17.50
2019-04-04T21:57:04.679Z,17.57
2019-04-04T21:59:39.667Z,17.33
2019-04-04T22:02:14.721Z,15.80
2019-04-04T22:04:49.691Z,16.23
2019-04-04T22:07:24.700Z,15.83
2019-04-04T22:09:59.716Z,15.60
2019-04-04T22:12:35.046Z,15.73
2019-04-04T22:15:10.538Z,15.40
2019-04-04T22:17:45.682Z,13.90
2019-04-04T22:20:21.858Z,14.83
2019-04-04T22:22:56.888Z,15.60
2019-04-04T22:25:32.123Z,14.17
2019-04-04T22:28:08.102Z,15.87
2019-04-04T22:30:43.908Z,14.30
2019-04-04T22:33:18.983Z,14.70
2019-04-04T22:35:54.139Z,14.40
2019-04-04T22:38:29.202Z,15.40
2019-04-04T22:41:04.419Z,14.80
2019-04-04T22:43:39.462Z,12.77
2019-04-04T22:46:14.647Z,15.30
2019-04-04T22:48:49.701Z,15.20
2019-04-04T22:51:24.722Z,17.00
2019-04-04T22:53:59.797Z,14.83
2019-04-04T22:56:35.155Z,16.90
2019-04-04T22:59:10.379Z,16.60
2019-04-04T23:01:45.417Z,16.20
2019-04-04T23:04:21.483Z,16.80
2019-04-04T23:06:56.511Z,18.57
2019-04-04T23:09:31.778Z,18.47
2019-04-04T23:12:06.954Z,18.20
2019-04-04T23:14:47.894Z,19.50
2019-04-04T23:17:18.944Z,19.67
2019-04-04T23:19:54.084Z,19.47
2019-04-04T23:22:29.276Z,17.83
2019-04-04T23:25:04.650Z,19.60
2019-04-04T23:27:40.064Z,20.10
2019-04-04T23:30:15.668Z,18.80
2019-04-04T23:32:50.863Z,21.10
2019-04-04T23:35:25.911Z,19.10
2019-04-04T23:38:00.913Z,18.60
2019-04-04T23:40:36.210Z,19.80
2019-04-04T23:43:11.365Z,19.90
2019-04-04T23:45:46.504Z,19.73
2019-04-04T23:48:21.768Z,18.33
2019-04-04T23:50:56.810Z,19.37
2019-04-04T23:53:32.206Z,20.50
2019-04-04T23:56:07.240Z,17.73
2019-04-04T23:58:43.571Z,18.97
